Time;durP1;ratioP1;P1;durP2;ratioP2;P2;SDS_P1;SDS_P2;PMS_P1;PMS_P2;Temp;Humidity;BMP_temperature;BMP_pressure;BME280_temperature;BME280_humidity;BME280_pressure;Samples;Min_cycle;Max_cycle;Signal;HPM_P1;HPM_P2
2022/03/08 00:00:29;;;;;;;1.10;1.10;;;;;;;-0.09;100.00;98266.31;5133361;28;20100;-62
2022/03/08 00:02:57;;;;;;;1.45;1.30;;;;;;;0.10;100.00;98269.50;5133605;28;20130;-62
2022/03/08 00:05:24;;;;;;;1.50;1.38;;;;;;;-0.14;100.00;98267.25;5133214;28;20054;-62
2022/03/08 00:07:51;;;;;;;3.95;1.70;;;;;;;-0.08;100.00;98270.59;5132186;27;20086;-62
2022/03/08 00:10:18;;;;;;;1.45;1.30;;;;;;;-0.04;100.00;98266.94;5133105;28;20047;-62
2022/03/08 00:12:46;;;;;;;1.45;1.35;;;;;;;-0.02;100.00;98263.94;5133144;28;20070;-63
2022/03/08 00:15:15;;;;;;;1.40;1.30;;;;;;;0.06;100.00;98268.53;5132519;28;20128;-63
2022/03/08 00:17:41;;;;;;;2.05;1.23;;;;;;;0.00;100.00;98264.44;5132912;28;20108;-62
2022/03/08 00:20:10;;;;;;;1.40;1.30;;;;;;;0.07;100.00;98251.28;5132980;28;20517;-63
2022/03/08 00:22:37;;;;;;;1.27;1.17;;;;;;;-0.10;100.00;98254.75;5132989;28;20047;-63
2022/03/08 00:25:04;;;;;;;1.50;1.40;;;;;;;-0.11;100.00;98245.06;5132832;28;20047;-62
2022/03/08 00:27:30;;;;;;;1.17;1.05;;;;;;;-0.06;100.00;98249.53;5132817;28;20051;-62
2022/03/08 00:29:57;;;;;;;1.65;1.02;;;;;;;0.03;100.00;98241.44;5133081;28;20055;-63
2022/03/08 00:32:24;;;;;;;1.40;1.30;;;;;;;0.14;100.00;98245.41;5132779;28;20184;-62
2022/03/08 00:34:51;;;;;;;1.63;1.52;;;;;;;0.07;100.00;98245.88;5133177;28;20051;-63
2022/03/08 00:37:18;;;;;;;1.15;1.10;;;;;;;0.12;100.00;98247.59;5132572;28;20082;-63
2022/03/08 00:39:44;;;;;;;1.67;1.20;;;;;;;-0.01;100.00;98262.81;5133072;28;20156;-62
2022/03/08 00:42:11;;;;;;;1.00;1.00;;;;;;;-0.07;100.00;98256.00;5132642;28;20146;-62
2022/03/08 00:44:38;;;;;;;1.52;1.40;;;;;;;-0.12;100.00;98259.66;5132789;28;20058;-63
2022/03/08 00:47:05;;;;;;;1.00;1.00;;;;;;;-0.05;100.00;98251.88;5132522;28;20138;-62
2022/03/08 00:49:32;;;;;;;1.30;1.20;;;;;;;-0.05;100.00;98257.28;5132499;28;20087;-63
2022/03/08 00:51:58;;;;;;;1.60;1.20;;;;;;;-0.07;100.00;98253.31;5132563;28;20120;-62
2022/03/08 00:54:24;;;;;;;1.20;1.10;;;;;;;-0.13;100.00;98252.69;5132354;28;20460;-63
2022/03/08 00:56:51;;;;;;;1.23;1.13;;;;;;;-0.06;100.00;98257.59;5132636;28;20146;-62
2022/03/08 00:59:17;;;;;;;1.75;1.50;;;;;;;-0.10;100.00;98246.69;5132253;28;20058;-63
2022/03/08 01:01:43;;;;;;;3.80;1.48;;;;;;;-0.07;100.00;98256.00;5132620;28;20047;-62
2022/03/08 01:04:10;;;;;;;2.45;1.20;;;;;;;-0.17;100.00;98253.63;5132259;28;20130;-62
2022/03/08 01:06:37;;;;;;;1.35;1.23;;;;;;;-0.21;100.00;98255.38;5132427;28;20498;-62
2022/03/08 01:09:03;;;;;;;1.67;1.10;;;;;;;-0.29;100.00;98246.97;5132041;28;20070;-63
2022/03/08 01:11:30;;;;;;;1.20;1.20;;;;;;;-0.22;100.00;98243.03;5132283;28;20051;-62
2022/03/08 01:13:56;;;;;;;1.90;1.42;;;;;;;-0.22;100.00;98245.72;5132067;28;20502;-62
2022/03/08 01:16:22;;;;;;;1.23;1.13;;;;;;;-0.32;100.00;98234.13;5131691;28;20047;-63
2022/03/08 01:18:48;;;;;;;1.23;1.13;;;;;;;-0.27;100.00;98243.94;5131965;27;20166;-62
2022/03/08 01:21:15;;;;;;;1.00;0.90;;;;;;;-0.23;100.00;98236.84;5132236;28;20062;-62
2022/03/08 01:23:42;;;;;;;1.17;1.05;;;;;;;-0.21;100.00;98241.91;5132543;28;20053;-63
2022/03/08 01:26:08;;;;;;;1.30;1.20;;;;;;;-0.22;100.00;98233.03;5132213;28;20051;-62
2022/03/08 01:28:34;;;;;;;1.88;1.40;;;;;;;-0.30;100.00;98228.41;5132056;28;20093;-62
2022/03/08 01:31:01;;;;;;;1.23;1.13;;;;;;;-0.29;100.00;98232.72;5131888;28;20055;-62
2022/03/08 01:33:28;;;;;;;2.65;0.93;;;;;;;-0.44;100.00;98228.56;5132032;28;20085;-62
2022/03/08 01:35:56;;;;;;;1.40;1.30;;;;;;;-0.41;100.00;98244.09;5131607;28;20043;-62
2022/03/08 01:38:22;;;;;;;1.50;1.40;;;;;;;-0.37;100.00;98242.34;5131894;28;20051;-62
2022/03/08 01:40:49;;;;;;;1.70;1.38;;;;;;;-0.32;100.00;98242.22;5131640;28;20061;-62
2022/03/08 01:43:16;;;;;;;1.70;1.60;;;;;;;-0.40;100.00;98253.78;5131628;28;20445;-62
2022/03/08 01:45:43;;;;;;;1.60;1.48;;;;;;;-0.37;100.00;98244.25;5131483;28;20055;-63
2022/03/08 01:48:09;;;;;;;1.55;1.45;;;;;;;-0.35;100.00;98266.28;5131643;28;20050;-62
2022/03/08 01:50:36;;;;;;;2.30;1.33;;;;;;;-0.29;100.00;98273.13;5131678;28;20047;-62
2022/03/08 01:53:03;;;;;;;1.65;1.55;;;;;;;-0.52;100.00;98262.47;5131511;28;20132;-63
2022/03/08 01:55:30;;;;;;;2.22;1.50;;;;;;;-0.50;100.00;98275.59;5131652;28;20043;-62
2022/03/08 01:57:57;;;;;;;1.70;1.45;;;;;;;-0.45;100.00;98291.63;5131800;28;20047;-62
2022/03/08 02:00:25;;;;;;;1.60;1.50;;;;;;;-0.37;100.00;98292.72;5131702;28;20054;-62
2022/03/08 02:02:52;;;;;;;1.48;1.33;;;;;;;-0.50;100.00;98287.19;5131283;28;20108;-63
2022/03/08 02:05:19;;;;;;;1.60;1.50;;;;;;;-0.71;100.00;98300.41;5131324;28;20133;-62
2022/03/08 02:07:45;;;;;;;1.67;1.58;;;;;;;-0.84;100.00;98316.66;5131312;28;20101;-62
2022/03/08 02:10:12;;;;;;;3.22;1.45;;;;;;;-0.74;100.00;98341.41;5131160;28;20054;-62
2022/03/08 02:12:38;;;;;;;1.73;1.63;;;;;;;-0.79;100.00;98330.00;5131222;28;20082;-62
2022/03/08 02:15:13;;;;;;;1.63;1.52;;;;;;;-0.83;100.00;98326.34;5130718;28;20461;-62
2022/03/08 02:17:40;;;;;;;1.85;1.67;;;;;;;-0.78;100.00;98336.94;5131361;28;20090;-62
2022/03/08 02:20:07;;;;;;;2.15;1.70;;;;;;;-0.81;100.00;98337.56;5131214;28;20051;-62
2022/03/08 02:22:35;;;;;;;3.47;2.00;;;;;;;-0.90;100.00;98350.19;5131444;28;20130;-62
2022/03/08 02:25:01;;;;;;;3.10;1.52;;;;;;;-0.81;100.00;98351.03;5130840;28;20089;-62
2022/03/08 02:27:28;;;;;;;2.63;1.70;;;;;;;-0.82;100.00;98347.53;5131371;28;20047;-62
2022/03/08 02:29:54;;;;;;;1.73;1.63;;;;;;;-0.96;100.00;98349.53;5130489;27;20142;-62
2022/03/08 02:32:20;;;;;;;2.00;1.80;;;;;;;-0.89;100.00;98357.97;5130462;28;20047;-62
2022/03/08 02:34:47;;;;;;;1.60;1.50;;;;;;;-0.84;100.00;98386.63;5130974;28;20097;-62
2022/03/08 02:37:13;;;;;;;1.80;1.70;;;;;;;-0.81;100.00;98376.03;5130949;28;20089;-62
2022/03/08 02:39:41;;;;;;;1.63;1.52;;;;;;;-0.95;100.00;98359.97;5130968;28;20513;-62
2022/03/08 02:42:08;;;;;;;1.90;1.75;;;;;;;-0.96;100.00;98365.69;5130794;28;20043;-62
2022/03/08 02:44:35;;;;;;;1.83;1.70;;;;;;;-1.06;100.00;98377.50;5130842;28;20043;-62
2022/03/08 02:47:03;;;;;;;2.42;1.98;;;;;;;-1.11;100.00;98372.22;5130709;28;20050;-62
2022/03/08 02:49:29;;;;;;;2.28;1.85;;;;;;;-1.14;100.00;98380.13;5130974;28;20051;-62
2022/03/08 02:51:56;;;;;;;2.83;2.20;;;;;;;-1.27;100.00;98381.78;5130536;28;20048;-63
2022/03/08 02:54:22;;;;;;;2.25;1.95;;;;;;;-1.39;100.00;98381.53;5131015;28;20073;-62
2022/03/08 02:56:49;;;;;;;2.53;1.80;;;;;;;-1.60;100.00;98373.97;5130704;28;20550;-62
2022/03/08 02:59:20;;;;;;;2.58;2.30;;;;;;;-1.67;100.00;98392.38;5130833;28;20097;-62
2022/03/08 03:01:46;;;;;;;2.40;1.80;;;;;;;-1.80;100.00;98395.88;5130315;28;20055;-62
2022/03/08 03:04:13;;;;;;;2.10;1.90;;;;;;;-1.81;100.00;98411.22;5130555;28;20089;-62
2022/03/08 03:06:39;;;;;;;1.83;1.73;;;;;;;-1.85;100.00;98382.59;5130458;28;20192;-62
2022/03/08 03:09:06;;;;;;;3.25;1.88;;;;;;;-1.92;100.00;98345.38;5130280;28;20138;-62
2022/03/08 03:11:32;;;;;;;2.65;1.70;;;;;;;-1.91;100.00;98345.06;5130325;28;20055;-62
2022/03/08 03:13:59;;;;;;;2.83;1.85;;;;;;;-1.94;100.00;98339.50;5130242;28;20104;-62
2022/03/08 03:16:25;;;;;;;1.98;1.83;;;;;;;-2.05;100.00;98346.22;5130351;28;20047;-62
2022/03/08 03:18:51;;;;;;;5.10;2.17;;;;;;;-2.08;100.00;98360.25;5130394;28;20468;-62
2022/03/08 03:21:18;;;;;;;2.67;2.13;;;;;;;-2.16;100.00;98383.22;5130702;28;20047;-62
2022/03/08 03:23:44;;;;;;;2.42;1.92;;;;;;;-2.10;100.00;98405.38;5130296;28;20055;-62
2022/03/08 03:26:10;;;;;;;2.17;1.90;;;;;;;-1.95;100.00;98424.69;5130556;28;20047;-62
2022/03/08 03:28:36;;;;;;;2.35;1.90;;;;;;;-2.01;100.00;98423.19;5130100;28;20047;-62
2022/03/08 03:31:04;;;;;;;3.20;2.08;;;;;;;-2.02;100.00;98421.59;5130134;28;20047;-62
2022/03/08 03:33:30;;;;;;;4.10;2.00;;;;;;;-2.04;100.00;98415.72;5130109;28;20082;-62
2022/03/08 03:35:56;;;;;;;2.67;2.47;;;;;;;-1.94;100.00;98442.38;5129947;28;20130;-62
2022/03/08 03:38:22;;;;;;;3.88;2.03;;;;;;;-2.17;100.00;98422.69;5130089;28;20142;-62
2022/03/08 03:40:49;;;;;;;4.07;2.22;;;;;;;-2.21;100.00;98439.72;5129788;28;20051;-62
2022/03/08 03:43:15;;;;;;;3.67;1.95;;;;;;;-2.31;100.00;98427.28;5132954;27;20083;-62
2022/03/08 03:45:41;;;;;;;2.20;2.00;;;;;;;-2.30;100.00;98414.66;5133518;28;20502;-62
2022/03/08 03:48:08;;;;;;;2.15;1.90;;;;;;;-2.49;100.00;98407.50;5133579;28;20057;-62
2022/03/08 03:50:34;;;;;;;2.78;1.98;;;;;;;-2.56;100.00;98387.53;5133269;28;20051;-61
2022/03/08 03:53:01;;;;;;;2.00;1.80;;;;;;;-2.54;100.00;98388.00;5133596;28;20086;-62
2022/03/08 03:55:27;;;;;;;3.42;2.20;;;;;;;-2.55;100.00;98384.53;5133362;28;20078;-62
2022/03/08 03:57:53;;;;;;;1.95;1.85;;;;;;;-2.51;100.00;98371.31;5133486;28;20189;-61
2022/03/08 04:00:20;;;;;;;2.15;1.77;;;;;;;-2.49;100.00;98377.97;5133166;28;20059;-62
2022/03/08 04:02:46;;;;;;;2.45;1.77;;;;;;;-2.35;100.00;98375.28;5133220;28;20051;-62
2022/03/08 04:05:13;;;;;;;3.17;1.80;;;;;;;-2.31;100.00;98378.16;5133145;28;20159;-62
2022/03/08 04:07:40;;;;;;;2.83;1.65;;;;;;;-2.27;100.00;98365.72;5133211;28;20514;-62
2022/03/08 04:10:09;;;;;;;2.95;2.20;;;;;;;-2.30;100.00;98374.38;5133237;28;20090;-62
2022/03/08 04:12:35;;;;;;;2.35;2.15;;;;;;;-2.16;100.00;98389.41;5133059;28;20053;-62
2022/03/08 04:15:02;;;;;;;3.30;2.45;;;;;;;-2.22;100.00;98379.84;5132998;28;20463;-62
2022/03/08 04:17:28;;;;;;;2.35;1.67;;;;;;;-2.26;100.00;98370.03;5132943;28;20134;-62
2022/03/08 04:19:54;;;;;;;2.78;1.70;;;;;;;-2.25;100.00;98366.22;5133321;28;20058;-62
2022/03/08 04:22:21;;;;;;;2.47;2.10;;;;;;;-2.38;100.00;98349.03;5132971;28;20047;-62
2022/03/08 04:24:47;;;;;;;2.97;1.92;;;;;;;-2.23;100.00;98364.84;5132780;28;20571;-62
2022/03/08 04:27:14;;;;;;;2.17;1.80;;;;;;;-2.20;100.00;98366.94;5132943;28;20130;-62
2022/03/08 04:29:40;;;;;;;2.65;1.63;;;;;;;-2.17;100.00;98368.19;5132615;28;20090;-61
2022/03/08 04:32:07;;;;;;;3.17;2.03;;;;;;;-2.24;100.00;98370.50;5132794;28;20134;-62
2022/03/08 04:34:33;;;;;;;4.07;1.95;;;;;;;-2.19;100.00;98370.41;5132689;28;20142;-62
2022/03/08 04:37:00;;;;;;;2.70;2.03;;;;;;;-2.22;100.00;98371.78;5132790;28;20043;-62
2022/03/08 04:39:27;;;;;;;4.57;2.28;;;;;;;-2.22;100.00;98384.44;5132517;28;20146;-62
2022/03/08 04:41:53;;;;;;;2.28;1.65;;;;;;;-2.33;100.00;98383.03;5132937;28;20043;-62
2022/03/08 04:44:19;;;;;;;1.80;1.70;;;;;;;-2.41;100.00;98390.69;5132514;28;20054;-62
2022/03/08 04:46:45;;;;;;;2.75;1.85;;;;;;;-2.40;100.00;98407.59;5132839;28;20147;-62
2022/03/08 04:49:12;;;;;;;2.10;1.92;;;;;;;-2.49;100.00;98439.72;5132227;28;20083;-61
2022/03/08 04:51:38;;;;;;;2.13;1.92;;;;;;;-2.49;100.00;98457.69;5132769;28;20085;-62
2022/03/08 04:54:05;;;;;;;3.25;1.85;;;;;;;-2.44;100.00;98492.47;5131781;27;20047;-62
2022/03/08 04:56:32;;;;;;;3.95;1.60;;;;;;;-2.56;100.00;98567.31;5132794;28;20476;-61
2022/03/08 04:58:58;;;;;;;3.05;1.60;;;;;;;-2.64;100.00;98609.00;5132557;28;20079;-62
2022/03/08 05:01:25;;;;;;;4.97;1.63;;;;;;;-2.96;100.00;98658.84;5132542;28;20047;-62
2022/03/08 05:03:51;;;;;;;2.85;2.15;;;;;;;-3.14;100.00;98730.09;5132711;28;20059;-61
2022/03/08 05:06:18;;;;;;;7.60;1.60;;;;;;;-3.40;100.00;98801.13;5132281;28;20526;-62
2022/03/08 05:08:44;;;;;;;1.73;1.40;;;;;;;-3.67;100.00;98855.22;5132625;28;20043;-62
2022/03/08 05:11:10;;;;;;;2.05;1.65;;;;;;;-3.66;100.00;98980.09;5132119;28;20109;-62
2022/03/08 05:13:38;;;;;;;2.25;1.75;;;;;;;-3.74;100.00;99031.53;5132478;28;20573;-63
2022/03/08 05:16:04;;;;;;;2.50;1.48;;;;;;;-3.82;100.00;99057.81;5131563;28;20055;-62
2022/03/08 05:18:31;;;;;;;1.67;1.58;;;;;;;-3.88;100.00;99077.66;5132290;28;20057;-62
2022/03/08 05:20:57;;;;;;;2.33;1.52;;;;;;;-3.92;100.00;99081.16;5131802;28;20054;-62
2022/03/08 05:23:23;;;;;;;2.63;1.65;;;;;;;-3.89;100.00;99108.19;5131925;28;20051;-62
2022/03/08 05:25:50;;;;;;;1.75;1.40;;;;;;;-4.16;100.00;99072.91;5131939;28;20051;-63
2022/03/08 05:28:16;;;;;;;2.88;1.50;;;;;;;-4.27;100.00;99014.00;5131745;28;20142;-62
2022/03/08 05:30:44;;;;;;;2.20;1.67;;;;;;;-4.32;100.00;98973.88;5131881;28;20139;-62
2022/03/08 05:33:10;;;;;;;2.92;1.60;;;;;;;-4.18;100.00;98981.34;5131470;28;20051;-62
2022/03/08 05:35:37;;;;;;;3.70;1.52;;;;;;;-4.03;100.00;98976.75;5131753;28;20090;-62
2022/03/08 05:38:04;;;;;;;2.88;1.42;;;;;;;-4.05;100.00;98929.91;5132079;28;20422;-62
2022/03/08 05:40:30;;;;;;;3.55;1.73;;;;;;;-4.13;100.00;98840.25;5132070;28;20453;-62
2022/03/08 05:43:00;;;;;;;7.93;1.80;;;;;;;-4.17;100.00;98782.97;5131410;28;20085;-62
2022/03/08 05:45:27;;;;;;;1.95;1.50;;;;;;;-4.21;100.00;98747.13;5131887;28;20062;-62
2022/03/08 05:47:53;;;;;;;3.03;1.77;;;;;;;-4.22;100.00;98709.94;5131445;28;20092;-62
2022/03/08 05:50:20;;;;;;;5.97;1.48;;;;;;;-4.15;100.00;98721.94;5131531;28;20586;-62
2022/03/08 05:52:46;;;;;;;1.48;1.25;;;;;;;-4.23;100.00;98701.13;5131395;28;20050;-62
2022/03/08 05:55:12;;;;;;;1.67;1.38;;;;;;;-4.34;100.00;98643.38;5131452;28;20153;-62
2022/03/08 05:57:38;;;;;;;3.72;1.63;;;;;;;-4.21;100.00;98660.69;5131429;28;20558;-62
2022/03/08 06:00:06;;;;;;;3.35;1.48;;;;;;;-4.12;100.00;98646.41;5131353;28;20087;-63
2022/03/08 06:02:33;;;;;;;3.17;1.33;;;;;;;-4.24;100.00;98602.34;5131259;28;20043;-62
2022/03/08 06:05:00;;;;;;;3.40;1.73;;;;;;;-4.33;100.00;98562.84;5130828;27;20055;-62
2022/03/08 06:07:27;;;;;;;2.08;1.30;;;;;;;-4.40;100.00;98538.25;5130865;28;20047;-62
2022/03/08 06:09:53;;;;;;;4.10;1.50;;;;;;;-4.31;100.00;98539.25;5131008;28;20158;-62
2022/03/08 06:12:20;;;;;;;2.10;1.50;;;;;;;-4.22;100.00;98520.72;5131543;28;20043;-62
2022/03/08 06:14:46;;;;;;;1.10;1.00;;;;;;;-4.24;100.00;98506.81;5131046;28;20098;-62
2022/03/08 06:17:12;;;;;;;1.20;1.10;;;;;;;-4.32;100.00;98499.41;5130707;28;20451;-63
2022/03/08 06:19:38;;;;;;;1.05;0.95;;;;;;;-4.21;100.00;98500.88;5131061;28;20193;-63
2022/03/08 06:22:05;;;;;;;2.63;1.45;;;;;;;-4.22;100.00;98498.50;5131008;28;20050;-62
2022/03/08 06:24:32;;;;;;;1.40;1.30;;;;;;;-4.03;100.00;98494.00;5130982;28;20494;-63
2022/03/08 06:26:59;;;;;;;1.75;0.95;;;;;;;-3.81;100.00;98488.91;5131144;28;20568;-63
2022/03/08 06:29:25;;;;;;;1.23;1.10;;;;;;;-3.71;100.00;98501.38;5130767;28;20057;-62
2022/03/08 06:31:51;;;;;;;2.50;1.20;;;;;;;-3.53;100.00;98504.34;5130940;28;20051;-63
2022/03/08 06:34:17;;;;;;;1.52;1.20;;;;;;;-3.05;100.00;98537.19;5131305;28;20058;-62
2022/03/08 06:36:44;;;;;;;0.95;0.95;;;;;;;-2.57;100.00;98561.13;5130856;28;20126;-63
2022/03/08 06:39:11;;;;;;;1.10;1.00;;;;;;;-2.30;100.00;98606.09;5131052;28;20195;-63
2022/03/08 06:41:37;;;;;;;1.58;1.33;;;;;;;-2.63;100.00;98650.88;5130675;28;20057;-62
2022/03/08 06:44:04;;;;;;;1.30;1.10;;;;;;;-2.68;100.00;98659.00;5130825;28;20513;-63
2022/03/08 06:46:31;;;;;;;2.45;1.27;;;;;;;-2.98;100.00;98662.88;5130690;28;20062;-63
2022/03/08 06:48:57;;;;;;;1.38;1.23;;;;;;;-3.06;100.00;98661.66;5130527;28;20078;-62
2022/03/08 06:51:24;;;;;;;1.55;1.38;;;;;;;-3.33;100.00;98660.38;5130744;28;20055;-63
2022/03/08 06:53:50;;;;;;;1.67;1.00;;;;;;;-3.36;100.00;98658.25;5130432;28;20047;-64
2022/03/08 06:56:17;;;;;;;1.30;1.20;;;;;;;-3.55;100.00;98646.66;5130467;28;20079;-62
2022/03/08 06:58:43;;;;;;;1.42;1.00;;;;;;;-3.84;100.00;98647.50;5130496;28;20072;-63
2022/03/08 07:01:10;;;;;;;1.35;1.25;;;;;;;-3.89;100.00;98615.41;5130780;28;20043;-63
2022/03/08 07:03:36;;;;;;;1.52;1.20;;;;;;;-3.70;100.00;98590.56;5130388;28;20044;-62
2022/03/08 07:06:05;;;;;;;1.17;1.08;;;;;;;-3.75;100.00;98591.44;5130285;28;20058;-63
2022/03/08 07:08:31;;;;;;;1.40;1.05;;;;;;;-3.84;100.00;98590.44;5130272;28;20054;-62
2022/03/08 07:10:57;;;;;;;1.25;1.15;;;;;;;-3.82;100.00;98593.66;5130556;28;20135;-62
2022/03/08 07:13:24;;;;;;;2.35;1.30;;;;;;;-3.78;100.00;98613.44;5130260;28;20090;-63
2022/03/08 07:15:51;;;;;;;3.08;2.10;;;;;;;-3.74;100.00;98613.66;5130024;28;20479;-63
2022/03/08 07:18:17;;;;;;;2.53;1.63;;;;;;;-3.94;100.00;98617.34;5133622;27;20088;-63
2022/03/08 07:20:43;;;;;;;1.20;1.05;;;;;;;-3.88;100.00;98606.28;5133821;28;20047;-63
2022/03/08 07:23:10;;;;;;;0.90;0.90;;;;;;;-3.80;100.00;98589.63;5134205;28;20051;-63
2022/03/08 07:25:36;;;;;;;3.63;1.55;;;;;;;-3.58;100.00;98593.66;5134338;28;20162;-63
2022/03/08 07:28:03;;;;;;;2.03;1.20;;;;;;;-3.55;100.00;98599.22;5134334;28;20611;-63
2022/03/08 07:30:31;;;;;;;1.05;1.05;;;;;;;-3.39;100.00;98623.19;5134086;28;20525;-63
2022/03/08 07:32:57;;;;;;;1.35;0.90;;;;;;;-3.52;100.00;98640.75;5134401;28;20484;-62
2022/03/08 07:35:24;;;;;;;1.73;1.00;;;;;;;-3.67;100.00;98695.28;5133863;28;20047;-63
2022/03/08 07:37:50;;;;;;;3.90;1.20;;;;;;;-3.60;100.00;98703.81;5134210;28;20408;-62
2022/03/08 07:40:16;;;;;;;2.45;1.00;;;;;;;-3.55;100.00;98692.22;5133784;28;20055;-62
2022/03/08 07:42:43;;;;;;;4.28;0.98;;;;;;;-3.78;100.00;98737.44;5133796;28;20074;-63
2022/03/08 07:45:10;;;;;;;1.08;1.05;;;;;;;-3.70;100.00;98757.44;5133497;28;20557;-63
2022/03/08 07:47:37;;;;;;;0.88;0.75;;;;;;;-3.67;100.00;98793.59;5133404;28;20051;-63
2022/03/08 07:50:04;;;;;;;0.93;0.85;;;;;;;-3.45;100.00;98793.94;5133434;28;20134;-63
2022/03/08 07:52:31;;;;;;;7.05;1.08;;;;;;;-3.60;100.00;98844.97;5133353;28;20599;-63
2022/03/08 07:54:57;;;;;;;3.78;0.95;;;;;;;-2.74;100.00;98847.97;5133646;28;20047;-63
2022/03/08 07:57:23;;;;;;;0.95;0.95;;;;;;;-1.68;100.00;98893.38;5133402;28;20108;-64
2022/03/08 07:59:50;;;;;;;3.22;1.40;;;;;;;-0.38;100.00;98932.94;5133543;28;20055;-63
2022/03/08 08:02:16;;;;;;;0.70;0.70;;;;;;;0.55;100.00;98991.19;5133248;28;20047;-64
2022/03/08 08:04:43;;;;;;;1.27;1.20;;;;;;;0.32;100.00;99028.88;5133142;28;20047;-64
2022/03/08 08:07:09;;;;;;;3.08;0.98;;;;;;;0.42;99.20;99036.75;5133238;28;20112;-64
2022/03/08 08:09:37;;;;;;;5.13;0.90;;;;;;;1.04;97.97;99051.66;5133185;28;20051;-64
2022/03/08 08:12:04;;;;;;;2.95;1.33;;;;;;;0.93;93.08;99064.56;5133103;28;20581;-64
2022/03/08 08:14:30;;;;;;;1.05;0.88;;;;;;;0.95;87.79;99067.75;5133057;28;20047;-64
2022/03/08 08:16:56;;;;;;;2.72;1.05;;;;;;;1.50;86.40;99064.91;5132619;28;20051;-64
2022/03/08 08:19:23;;;;;;;1.55;1.42;;;;;;;1.31;84.46;99066.97;5133008;28;20055;-64
2022/03/08 08:21:50;;;;;;;2.28;0.93;;;;;;;1.59;82.24;99097.34;5132970;28;20043;-64
2022/03/08 08:24:16;;;;;;;1.92;1.00;;;;;;;1.96;79.98;99089.97;5133094;28;20429;-65
2022/03/08 08:26:42;;;;;;;5.15;0.95;;;;;;;1.95;76.88;99097.28;5133088;28;20044;-65
2022/03/08 08:29:09;;;;;;;5.07;0.90;;;;;;;1.59;78.57;99097.34;5131797;27;20089;-65
2022/03/08 08:31:35;;;;;;;1.23;0.98;;;;;;;1.46;78.38;99090.91;5133007;28;20047;-65
2022/03/08 08:34:01;;;;;;;3.53;1.20;;;;;;;2.00;80.59;99085.53;5132884;28;20134;-65
2022/03/08 08:36:27;;;;;;;12.30;1.02;;;;;;;2.21;77.33;99097.44;5132630;28;20054;-64
2022/03/08 08:38:54;;;;;;;2.47;1.05;;;;;;;2.21;75.95;99099.34;5132570;28;20055;-64
2022/03/08 08:41:21;;;;;;;1.10;1.00;;;;;;;1.98;78.31;99101.28;5132718;28;20059;-65
2022/03/08 08:43:47;;;;;;;1.52;0.93;;;;;;;1.83;80.13;99102.44;5133046;28;20047;-64
2022/03/08 08:46:13;;;;;;;2.85;0.90;;;;;;;1.22;78.46;99103.91;5132545;28;20051;-65
2022/03/08 08:48:40;;;;;;;1.40;0.90;;;;;;;1.69;78.06;99099.03;5132375;28;20108;-64
2022/03/08 08:51:06;;;;;;;1.95;0.90;;;;;;;1.53;77.63;99107.47;5132661;28;20078;-64
2022/03/08 08:53:32;;;;;;;5.78;1.05;;;;;;;1.38;78.48;99116.75;5132883;28;20047;-65
2022/03/08 08:56:00;;;;;;;3.25;1.35;;;;;;;1.25;79.13;99108.69;5132490;28;20502;-65
2022/03/08 08:58:26;;;;;;;1.15;1.00;;;;;;;0.97;78.86;99122.25;5132647;28;20116;-65
2022/03/08 09:00:52;;;;;;;1.92;0.88;;;;;;;1.21;80.69;99100.41;5132266;28;20055;-65
2022/03/08 09:03:18;;;;;;;2.45;1.35;;;;;;;1.31;77.58;99108.28;5132526;28;20043;-65
2022/03/08 09:05:45;;;;;;;6.38;1.20;;;;;;;1.48;79.15;99117.63;5132467;28;20057;-65
2022/03/08 09:08:12;;;;;;;7.35;1.10;;;;;;;1.45;78.42;99115.53;5132438;28;20546;-64
2022/03/08 09:10:38;;;;;;;1.50;1.30;;;;;;;1.40;75.81;99116.47;5132039;28;20051;-65
2022/03/08 09:13:05;;;;;;;1.17;1.00;;;;;;;1.49;78.45;99117.31;5132025;28;20070;-65
2022/03/08 09:15:32;;;;;;;2.50;1.00;;;;;;;1.65;78.30;99120.47;5131645;28;20062;-66
2022/03/08 09:18:00;;;;;;;5.90;1.20;;;;;;;2.29;77.67;99109.38;5132301;28;20139;-65
2022/03/08 09:20:26;;;;;;;1.83;1.00;;;;;;;2.58;76.47;99111.59;5132415;28;20051;-65
2022/03/08 09:22:52;;;;;;;8.98;1.40;;;;;;;2.74;74.30;99115.47;5132242;28;20489;-65
2022/03/08 09:25:19;;;;;;;1.50;1.10;;;;;;;3.10;75.05;99111.72;5132460;28;20051;-65
2022/03/08 09:27:46;;;;;;;1.95;1.30;;;;;;;2.97;73.21;99109.97;5132061;28;20526;-65
2022/03/08 09:30:14;;;;;;;1.10;1.00;;;;;;;2.51;73.53;99109.34;5132324;28;20560;-65
2022/03/08 09:32:40;;;;;;;1.25;1.15;;;;;;;1.97;74.52;99105.91;5132130;28;20062;-65
2022/03/08 09:35:07;;;;;;;2.60;1.25;;;;;;;2.05;79.35;99113.25;5132162;28;20582;-65
2022/03/08 09:37:33;;;;;;;3.65;1.10;;;;;;;2.10;77.96;99110.44;5131762;28;20047;-66
2022/03/08 09:40:00;;;;;;;1.55;0.95;;;;;;;2.03;75.73;99109.25;5131859;27;20082;-65
2022/03/08 09:42:26;;;;;;;1.45;1.00;;;;;;;1.93;76.74;99110.31;5131783;28;20061;-65
2022/03/08 09:44:53;;;;;;;2.05;1.05;;;;;;;2.17;77.71;99099.16;5131551;28;20138;-65
2022/03/08 09:47:19;;;;;;;1.20;1.10;;;;;;;2.27;78.00;99103.50;5131693;28;20511;-65
2022/03/08 09:49:46;;;;;;;1.83;1.20;;;;;;;2.00;76.54;99110.69;5131645;28;20066;-65
2022/03/08 09:52:12;;;;;;;3.13;1.30;;;;;;;1.72;76.72;99106.50;5131900;28;20083;-65
2022/03/08 09:54:41;;;;;;;1.08;1.00;;;;;;;2.10;78.47;99105.00;5131519;28;20047;-65
2022/03/08 09:57:09;;;;;;;1.00;1.00;;;;;;;2.24;75.13;99101.41;5131682;28;20047;-65
2022/03/08 09:59:35;;;;;;;2.53;1.27;;;;;;;2.26;78.50;99091.88;5131506;28;20082;-65
2022/03/08 10:02:01;;;;;;;1.67;1.10;;;;;;;2.49;77.18;99097.22;5131640;28;20048;-65
2022/03/08 10:04:28;;;;;;;1.98;1.05;;;;;;;1.88;75.84;99105.84;5131341;28;20137;-65
2022/03/08 10:06:54;;;;;;;1.10;1.00;;;;;;;1.81;76.63;99121.69;5131178;28;20047;-65
2022/03/08 10:09:22;;;;;;;1.90;1.20;;;;;;;1.46;75.52;99103.63;5131180;28;20090;-65
2022/03/08 10:11:50;;;;;;;5.20;1.05;;;;;;;1.40;80.69;99100.25;5131073;28;20163;-65
2022/03/08 10:14:28;;;;;;;4.03;1.00;;;;;;;1.20;78.76;99108.78;5131694;28;20043;-65
2022/03/08 10:16:55;;;;;;;2.17;1.15;;;;;;;1.06;77.68;99106.13;5130780;28;20074;-64
2022/03/08 10:19:21;;;;;;;1.05;0.95;;;;;;;1.01;79.87;99095.44;5131198;28;20582;-65
2022/03/08 10:21:51;;;;;;;3.35;1.40;;;;;;;1.32;81.05;99093.66;5131035;28;20150;-65
2022/03/08 10:24:21;;;;;;;2.55;0.90;;;;;;;1.65;83.80;99079.91;5131368;28;20410;-65
2022/03/08 10:26:50;;;;;;;3.60;1.30;;;;;;;1.96;82.20;99090.75;5131149;28;20399;-65
2022/03/08 10:29:24;;;;;;;1.02;1.02;;;;;;;1.71;78.74;99094.13;5131144;28;20047;-65
2022/03/08 10:32:03;;;;;;;;;;;;;;;1.57;80.09;99091.47;5131415;28;20062;-65
2022/03/08 10:34:31;;;;;;;3.47;1.20;;;;;;;1.34;79.54;99091.47;5130675;28;19933;-65
2022/03/08 10:37:03;;;;;;;2.80;1.08;;;;;;;1.68;80.27;99089.31;5131018;28;20051;-65
2022/03/08 10:39:29;;;;;;;1.58;1.08;;;;;;;1.60;77.96;99093.53;5131088;28;20112;-64
2022/03/08 10:41:57;;;;;;;2.15;1.30;;;;;;;1.74;81.11;99082.69;5130749;28;20091;-64
2022/03/08 10:44:32;;;;;;;1.33;1.13;;;;;;;1.85;78.30;99084.03;5130980;28;20051;-65
2022/03/08 10:47:05;;;;;;;6.00;1.02;;;;;;;1.62;76.65;99102.94;5130862;28;20054;-65
2022/03/08 10:49:32;;;;;;;1.92;1.25;;;;;;;1.26;78.20;99096.78;5130691;28;20051;-65
2022/03/08 10:52:01;;;;;;;0.93;0.90;;;;;;;1.13;81.60;99087.59;5130205;27;20047;-65
2022/03/08 10:54:27;;;;;;;2.70;0.90;;;;;;;1.11;80.78;99092.53;5130769;28;20051;-64
2022/03/08 10:56:55;;;;;;;2.55;1.30;;;;;;;1.29;79.64;99088.84;5130607;28;20054;-64
2022/03/08 10:59:21;;;;;;;1.10;1.00;;;;;;;1.44;79.69;99095.81;5130685;28;20501;-65
2022/03/08 11:01:48;;;;;;;1.27;1.02;;;;;;;1.92;79.32;99094.41;5130599;28;20142;-65
2022/03/08 11:04:19;;;;;;;2.88;1.13;;;;;;;2.22;77.11;99087.41;5130755;28;20176;-64
2022/03/08 11:06:47;;;;;;;1.58;1.10;;;;;;;2.25;75.71;99090.28;5130462;28;20050;-64
2022/03/08 11:09:15;;;;;;;2.42;1.20;;;;;;;2.29;77.07;99098.56;5130348;28;20525;-64
2022/03/08 11:11:42;;;;;;;2.20;1.17;;;;;;;1.67;75.37;99103.91;5130579;28;20043;-64
2022/03/08 11:14:08;;;;;;;1.63;0.82;;;;;;;0.97;76.81;99095.25;5130786;28;20462;-64
2022/03/08 11:16:35;;;;;;;0.82;0.82;;;;;;;1.39;79.55;99091.31;5129852;28;20051;-65
2022/03/08 11:19:02;;;;;;;12.35;1.67;;;;;;;1.73;80.42;99094.59;5130110;28;20054;-64
2022/03/08 11:21:30;;;;;;;1.77;1.13;;;;;;;1.53;77.45;99098.59;5130261;28;20051;-64
2022/03/08 11:23:57;;;;;;;2.55;1.38;;;;;;;1.36;77.02;99107.34;5130404;28;20051;-64
2022/03/08 11:26:26;;;;;;;7.50;1.60;;;;;;;0.80;78.31;99095.88;5130656;28;20163;-65
2022/03/08 11:28:53;;;;;;;1.77;1.10;;;;;;;0.52;81.66;99073.50;5130216;28;20050;-65